Time;durP1;ratioP1;P1;durP2;ratioP2;P2;SDS_P1;SDS_P2;PMS_P1;PMS_P2;Temp;Humidity;BMP_temperature;BMP_pressure;BME280_temperature;BME280_humidity;BME280_pressure;Samples;Min_cycle;Max_cycle;Signal;HPM_P1;HPM_P2
2023/05/01 00:00:13;;;;;;;11.95;5.40;;;6.90;86.90;;;;;;5034311;28;20117;-47
2023/05/01 00:02:41;;;;;;;11.23;4.95;;;6.90;87.10;;;;;;5019742;28;20116;-44
2023/05/01 00:05:08;;;;;;;8.93;5.78;;;6.90;87.20;;;;;;5033876;28;20116;-45
2023/05/01 00:07:36;;;;;;;11.32;5.90;;;6.90;87.30;;;;;;5052645;28;20568;-45
2023/05/01 00:10:03;;;;;;;12.23;5.43;;;6.90;87.40;;;;;;5044303;28;20024;-44
2023/05/01 00:12:31;;;;;;;10.77;5.47;;;6.90;87.50;;;;;;5059690;28;20067;-46
2023/05/01 00:14:59;;;;;;;11.65;5.25;;;6.90;87.60;;;;;;5053061;28;20025;-46
2023/05/01 00:17:27;;;;;;;9.00;5.07;;;6.90;87.60;;;;;;5036696;28;20101;-45
2023/05/01 00:19:55;;;;;;;11.43;5.88;;;6.90;87.60;;;;;;5039425;28;20028;-46
2023/05/01 00:22:21;;;;;;;9.27;5.15;;;6.80;87.60;;;;;;5034237;28;20416;-45
2023/05/01 00:24:48;;;;;;;13.30;6.85;;;6.70;87.60;;;;;;5071983;28;20099;-45
2023/05/01 00:27:16;;;;;;;13.25;6.30;;;6.80;87.70;;;;;;5051012;28;20041;-44
2023/05/01 00:29:41;;;;;;;10.95;6.65;;;6.80;87.80;;;;;;5053271;28;20021;-44
2023/05/01 00:32:09;;;;;;;12.27;6.82;;;6.70;87.80;;;;;;5060577;28;20096;-44
2023/05/01 00:34:37;;;;;;;13.90;7.60;;;6.70;87.70;;;;;;5053939;28;20062;-45
2023/05/01 00:37:03;;;;;;;15.95;8.32;;;6.60;87.70;;;;;;5054481;28;20483;-44
2023/05/01 00:39:32;;;;;;;18.80;7.25;;;6.60;87.80;;;;;;5034886;28;20041;-45
2023/05/01 00:41:59;;;;;;;11.68;8.07;;;6.60;87.80;;;;;;5047841;28;20029;-44
2023/05/01 00:44:27;;;;;;;13.45;7.72;;;6.60;87.90;;;;;;5032938;28;20025;-44
2023/05/01 00:46:55;;;;;;;12.52;8.13;;;6.60;87.90;;;;;;5060224;28;20480;-44
2023/05/01 00:49:25;;;;;;;11.25;7.80;;;6.60;87.80;;;;;;5062197;28;20029;-44
2023/05/01 00:51:52;;;;;;;13.82;8.63;;;6.60;87.70;;;;;;5016299;28;20038;-46
2023/05/01 00:54:21;;;;;;;13.63;9.43;;;6.60;87.70;;;;;;5052182;28;20400;-44
2023/05/01 00:56:50;;;;;;;11.95;8.13;;;6.60;87.80;;;;;;5047325;28;20085;-44
2023/05/01 00:59:18;;;;;;;16.88;9.10;;;6.60;87.70;;;;;;5045641;28;20033;-44
2023/05/01 01:01:46;;;;;;;15.65;9.75;;;6.50;87.50;;;;;;5050836;28;20095;-45
2023/05/01 01:04:13;;;;;;;12.77;8.77;;;6.50;87.60;;;;;;5032531;28;20038;-44
2023/05/01 01:06:56;;;;;;;14.02;8.70;;;6.50;87.60;;;;;;5032694;28;20370;-45
2023/05/01 01:09:43;;;;;;;13.02;9.43;;;6.40;87.70;;;;;;5062932;28;20029;-44
2023/05/01 01:12:52;;;;;;;12.30;9.20;;;6.50;87.70;;;;;;5051934;28;20426;-46
2023/05/01 01:15:44;;;;;;;13.45;9.55;;;6.40;87.80;;;;;;5019860;28;20084;-44
2023/05/01 01:18:22;;;;;;;15.30;11.23;;;6.50;87.90;;;;;;5055176;28;20039;-43
2023/05/01 01:21:08;;;;;;;14.70;9.73;;;6.40;87.90;;;;;;5072930;28;20103;-45
2023/05/01 01:24:30;;;;;;;18.73;10.88;;;6.40;87.90;;;;;;5042327;28;20091;-44
2023/05/01 01:27:33;;;;;;;14.68;9.75;;;6.40;87.90;;;;;;5064653;28;20029;-44
2023/05/01 01:30:38;;;;;;;21.55;11.90;;;6.40;88.00;;;;;;5054573;28;20033;-44
2023/05/01 01:33:34;;;;;;;15.85;11.02;;;6.40;88.00;;;;;;5033927;28;20048;-45
2023/05/01 01:36:07;;;;;;;18.27;12.15;;;6.40;87.90;;;;;;5046050;28;20040;-46
2023/05/01 01:38:50;;;;;;;21.40;13.07;;;6.40;87.90;;;;;;5072327;28;20028;-45
2023/05/01 01:41:26;;;;;;;18.60;12.25;;;6.30;87.90;;;;;;5033185;28;20087;-44
2023/05/01 01:44:05;;;;;;;16.33;11.85;;;6.30;87.90;;;;;;5045938;28;20060;-44
2023/05/01 01:46:38;;;;;;;16.98;13.55;;;6.30;87.90;;;;;;5032558;28;20044;-44
2023/05/01 01:49:14;;;;;;;19.80;13.32;;;6.30;87.80;;;;;;5065122;28;20061;-44
2023/05/01 01:51:44;;;;;;;18.13;13.32;;;6.30;87.80;;;;;;5026034;28;20461;-45
2023/05/01 01:54:14;;;;;;;19.92;13.90;;;6.30;87.80;;;;;;5065716;28;20024;-48
2023/05/01 01:56:41;;;;;;;;;;;6.30;87.80;;;;;;5038964;28;20115;-46
2023/05/01 01:59:12;;;;;;;19.10;13.27;;;6.30;87.70;;;;;;5037795;28;19905;-44
2023/05/01 02:01:44;;;;;;;17.95;13.30;;;6.20;87.80;;;;;;5037189;28;20055;-47
2023/05/01 02:04:13;;;;;;;19.75;14.57;;;6.20;87.80;;;;;;5056237;28;20024;-45
2023/05/01 02:06:50;;;;;;;18.52;13.93;;;6.20;87.70;;;;;;5072046;28;20145;-44
2023/05/01 02:09:19;;;;;;;16.33;13.35;;;6.20;87.70;;;;;;5068363;28;20028;-44
2023/05/01 02:11:51;;;;;;;19.83;14.45;;;6.20;87.60;;;;;;5046919;28;20108;-44
2023/05/01 02:14:20;;;;;;;20.27;16.73;;;6.10;87.60;;;;;;5057545;28;20040;-46
2023/05/01 02:16:47;;;;;;;20.60;14.85;;;6.10;87.80;;;;;;5034325;28;20043;-44
2023/05/01 02:19:15;;;;;;;19.17;15.18;;;6.10;87.80;;;;;;5036577;28;20467;-43
2023/05/01 02:21:44;;;;;;;24.67;17.25;;;6.10;87.80;;;;;;5048908;28;20033;-44
2023/05/01 02:24:11;;;;;;;25.73;17.48;;;6.10;87.70;;;;;;5034135;28;20033;-45
2023/05/01 02:26:44;;;;;;;23.23;16.70;;;6.00;87.70;;;;;;5054528;28;20540;-43
2023/05/01 02:29:11;;;;;;;27.30;16.98;;;6.00;87.90;;;;;;5038500;28;20029;-46
2023/05/01 02:31:40;;;;;;;23.52;17.83;;;6.10;87.90;;;;;;5042862;28;20030;-42
2023/05/01 02:34:09;;;;;;;26.15;17.90;;;6.10;87.90;;;;;;5035684;28;20455;-43
2023/05/01 02:36:34;;;;;;;21.83;15.75;;;6.10;87.80;;;;;;5065719;28;20037;-45
2023/05/01 02:39:01;;;;;;;23.08;17.45;;;6.10;87.90;;;;;;5023831;28;20041;-42
2023/05/01 02:41:32;;;;;;;22.15;15.55;;;6.10;87.90;;;;;;5058448;28;20028;-44
2023/05/01 02:44:04;;;;;;;25.23;18.48;;;6.10;87.90;;;;;;5035659;28;20447;-43
2023/05/01 02:46:38;;;;;;;27.95;18.35;;;6.10;87.90;;;;;;5018135;28;20040;-42
2023/05/01 02:49:06;;;;;;;21.58;17.23;;;6.10;88.00;;;;;;5034919;28;20064;-44
2023/05/01 02:51:34;;;;;;;25.30;17.95;;;6.10;88.10;;;;;;5059024;28;20044;-43
2023/05/01 02:54:00;;;;;;;24.60;18.37;;;6.10;88.10;;;;;;5022793;28;20060;-45
2023/05/01 02:56:28;;;;;;;20.50;18.25;;;6.10;88.00;;;;;;5037270;28;20129;-43
2023/05/01 02:58:56;;;;;;;20.67;16.42;;;6.10;88.00;;;;;;5024211;28;20036;-44
2023/05/01 03:01:26;;;;;;;22.42;17.25;;;6.10;88.10;;;;;;5053924;28;20076;-43
2023/05/01 03:03:52;;;;;;;26.52;18.77;;;6.00;88.10;;;;;;5034000;28;20038;-43
2023/05/01 03:06:18;;;;;;;27.73;19.52;;;6.00;88.10;;;;;;5053273;28;20064;-43
2023/05/01 03:08:46;;;;;;;25.58;18.55;;;5.90;88.20;;;;;;5052033;28;20025;-44
2023/05/01 03:11:14;;;;;;;30.08;20.48;;;5.90;88.20;;;;;;5069950;28;20028;-44
2023/05/01 03:13:41;;;;;;;27.83;17.98;;;5.90;88.10;;;;;;5055091;28;20022;-42
2023/05/01 03:16:09;;;;;;;20.25;15.88;;;5.90;88.10;;;;;;5049365;28;20106;-42
2023/05/01 03:18:34;;;;;;;26.85;18.50;;;5.90;87.90;;;;;;5018099;28;20033;-43
2023/05/01 03:21:01;;;;;;;23.85;18.00;;;6.00;87.80;;;;;;5036689;28;20037;-44
2023/05/01 03:23:28;;;;;;;21.15;16.25;;;6.10;87.80;;;;;;5045745;28;20032;-43
2023/05/01 03:25:56;;;;;;;20.13;16.88;;;6.10;87.40;;;;;;5021840;28;20056;-43
2023/05/01 03:28:22;;;;;;;25.70;17.00;;;6.10;87.00;;;;;;5052355;28;20036;-44
2023/05/01 03:30:51;;;;;;;21.83;15.85;;;6.20;87.00;;;;;;5043919;28;20013;-43
2023/05/01 03:33:17;;;;;;;25.95;17.10;;;6.20;86.80;;;;;;5063420;28;20104;-43
2023/05/01 03:35:43;;;;;;;21.58;15.25;;;6.30;86.80;;;;;;5052681;28;20109;-45
2023/05/01 03:38:11;;;;;;;23.20;16.45;;;6.30;86.70;;;;;;5057936;28;20044;-43
2023/05/01 03:40:37;;;;;;;24.10;15.50;;;6.30;86.60;;;;;;5043389;28;20355;-45
2023/05/01 03:43:03;;;;;;;28.65;17.85;;;6.40;86.60;;;;;;5049850;28;20037;-44
2023/05/01 03:45:30;;;;;;;21.13;16.67;;;6.40;86.50;;;;;;5038228;28;20486;-43
2023/05/01 03:47:59;;;;;;;18.52;14.55;;;6.40;86.40;;;;;;5074131;28;20429;-43
2023/05/01 03:50:25;;;;;;;18.67;14.82;;;6.40;86.50;;;;;;5073173;28;20338;-43
2023/05/01 03:52:55;;;;;;;21.40;15.63;;;6.30;86.30;;;;;;5057116;28;20098;-43
2023/05/01 03:55:23;;;;;;;21.70;15.38;;;6.30;86.50;;;;;;5056666;28;20021;-43
2023/05/01 03:57:49;;;;;;;21.17;14.82;;;6.40;86.70;;;;;;5056347;28;20112;-42
2023/05/01 04:00:20;;;;;;;20.70;14.55;;;6.40;86.60;;;;;;5040638;28;20024;-43
2023/05/01 04:02:46;;;;;;;21.40;13.63;;;6.40;86.60;;;;;;5073716;28;20043;-44
2023/05/01 04:05:13;;;;;;;20.10;14.82;;;6.40;86.40;;;;;;5073162;28;20028;-43
2023/05/01 04:07:41;;;;;;;19.00;14.40;;;6.30;86.50;;;;;;5044865;28;20156;-44
2023/05/01 04:10:13;;;;;;;20.65;14.27;;;6.30;86.70;;;;;;5053626;28;20092;-42
2023/05/01 04:12:42;;;;;;;21.95;13.70;;;6.30;86.90;;;;;;5059515;28;20028;-43
2023/05/01 04:15:10;;;;;;;17.20;12.85;;;6.30;86.80;;;;;;5020441;28;20053;-43
2023/05/01 04:17:42;;;;;;;19.77;15.07;;;6.20;87.00;;;;;;5044917;28;20128;-43
2023/05/01 04:20:09;;;;;;;21.70;14.95;;;6.20;87.00;;;;;;5053599;28;20075;-43
2023/05/01 04:22:37;;;;;;;17.23;12.63;;;6.20;87.40;;;;;;5054964;28;20029;-43
2023/05/01 04:25:06;;;;;;;17.25;13.68;;;6.20;87.50;;;;;;5034454;28;20052;-43
2023/05/01 04:27:35;;;;;;;20.05;12.90;;;6.20;87.80;;;;;;5033995;28;20036;-44
2023/05/01 04:30:05;;;;;;;17.08;14.15;;;6.20;87.70;;;;;;5041091;28;20029;-43
2023/05/01 04:32:36;;;;;;;18.52;13.90;;;6.20;87.80;;;;;;5067965;28;20029;-42
2023/05/01 04:35:04;;;;;;;20.40;13.80;;;6.20;87.70;;;;;;5051964;28;20112;-43
2023/05/01 04:37:36;;;;;;;17.50;12.77;;;6.20;87.40;;;;;;5059019;28;20024;-43
2023/05/01 04:40:05;;;;;;;17.88;12.77;;;6.20;87.30;;;;;;5057153;28;20090;-44
2023/05/01 04:42:31;;;;;;;18.67;12.85;;;6.20;87.20;;;;;;5066427;28;20025;-43
2023/05/01 04:45:02;;;;;;;17.88;12.40;;;6.20;87.50;;;;;;5052313;28;20516;-42
2023/05/01 04:47:30;;;;;;;19.85;12.82;;;6.20;87.60;;;;;;5068905;28;20028;-43
2023/05/01 04:49:57;;;;;;;19.48;14.52;;;6.20;87.70;;;;;;5047850;28;20013;-42
2023/05/01 04:52:26;;;;;;;17.42;11.98;;;6.20;87.70;;;;;;5030141;28;20066;-42
2023/05/01 04:54:53;;;;;;;15.55;11.38;;;6.20;87.70;;;;;;5033123;28;20087;-42
2023/05/01 04:57:20;;;;;;;17.52;12.00;;;6.30;87.80;;;;;;5064534;28;20039;-44
2023/05/01 04:59:51;;;;;;;18.55;12.23;;;6.30;87.70;;;;;;5073005;28;20020;-42
2023/05/01 05:02:17;;;;;;;19.88;11.98;;;6.40;87.60;;;;;;5058747;28;20021;-44
2023/05/01 05:04:48;;;;;;;20.33;11.05;;;6.40;87.70;;;;;;5039558;28;20024;-42
2023/05/01 05:07:25;;;;;;;16.58;11.68;;;6.60;87.60;;;;;;5069700;28;20048;-43
2023/05/01 05:09:52;;;;;;;18.17;12.10;;;6.70;87.40;;;;;;5052785;28;20032;-43
2023/05/01 05:12:19;;;;;;;14.20;10.73;;;6.80;87.30;;;;;;5064382;28;20033;-43
2023/05/01 05:14:47;;;;;;;15.55;10.80;;;6.90;87.10;;;;;;5059616;28;20052;-43
2023/05/01 05:17:12;;;;;;;14.68;10.40;;;6.90;86.50;;;;;;5048873;28;20514;-44
2023/05/01 05:19:39;;;;;;;15.30;9.88;;;7.20;86.30;;;;;;5032828;28;20136;-44
2023/05/01 05:22:07;;;;;;;14.43;10.27;;;7.30;85.90;;;;;;5063860;28;20029;-43
2023/05/01 05:24:36;;;;;;;11.85;9.35;;;7.40;85.20;;;;;;5054585;28;20064;-43
2023/05/01 05:27:02;;;;;;;14.68;10.18;;;7.60;84.70;;;;;;5064188;28;20493;-43
2023/05/01 05:29:29;;;;;;;14.55;10.10;;;7.80;84.30;;;;;;5052343;28;20119;-43
2023/05/01 05:31:58;;;;;;;11.15;8.60;;;7.90;83.50;;;;;;5061136;28;20036;-43
2023/05/01 05:34:26;;;;;;;14.70;8.90;;;8.10;82.70;;;;;;5045066;28;20099;-45
2023/05/01 05:36:53;;;;;;;13.93;9.07;;;8.40;82.20;;;;;;5061462;28;20045;-43
2023/05/01 05:39:25;;;;;;;13.45;8.73;;;8.40;81.40;;;;;;5068479;28;20082;-44
2023/05/01 05:41:52;;;;;;;13.65;8.07;;;8.50;81.00;;;;;;5066915;28;20025;-45
2023/05/01 05:44:19;;;;;;;12.85;8.48;;;8.60;80.70;;;;;;5072856;28;20228;-44
2023/05/01 05:46:46;;;;;;;13.13;8.18;;;8.70;80.50;;;;;;5063006;28;20517;-44
2023/05/01 05:49:13;;;;;;;12.05;7.82;;;8.90;80.20;;;;;;5015176;28;20041;-45
2023/05/01 05:51:40;;;;;;;16.08;7.82;;;9.20;79.70;;;;;;5032264;28;20443;-44
2023/05/01 05:54:06;;;;;;;10.38;7.22;;;9.40;77.90;;;;;;5021191;28;20952;-47
2023/05/01 05:56:33;;;;;;;10.00;6.45;;;9.60;77.90;;;;;;5048113;28;20037;-45
2023/05/01 05:59:03;;;;;;;10.70;7.00;;;9.80;77.70;;;;;;5051813;28;20025;-45
2023/05/01 06:01:31;;;;;;;12.43;7.68;;;9.90;76.20;;;;;;5049286;28;20037;-45
2023/05/01 06:03:57;;;;;;;11.80;7.78;;;9.90;75.60;;;;;;5051894;28;20425;-44
2023/05/01 06:06:26;;;;;;;9.77;6.60;;;9.80;74.70;;;;;;5051042;28;20053;-44
2023/05/01 06:08:54;;;;;;;9.90;6.28;;;9.80;75.50;;;;;;5051050;28;20021;-45
2023/05/01 06:11:21;;;;;;;10.60;6.93;;;9.70;76.00;;;;;;5050867;28;20459;-45
2023/05/01 06:13:48;;;;;;;10.27;6.95;;;9.80;76.10;;;;;;5033657;28;20021;-45
2023/05/01 06:16:14;;;;;;;10.55;7.50;;;9.80;76.50;;;;;;5030899;28;20152;-47
2023/05/01 06:18:41;;;;;;;11.18;6.88;;;9.90;76.40;;;;;;5055082;28;20060;-45
2023/05/01 06:21:09;;;;;;;12.02;7.07;;;10.00;76.50;;;;;;5050349;28;20028;-47
2023/05/01 06:23:37;;;;;;;10.35;6.65;;;10.10;75.60;;;;;;5046218;28;20428;-47
2023/05/01 06:26:04;;;;;;;13.43;6.63;;;10.20;75.60;;;;;;5050320;28;20025;-45
2023/05/01 06:28:32;;;;;;;15.40;6.40;;;10.20;74.30;;;;;;5029409;28;20025;-46
2023/05/01 06:31:00;;;;;;;12.32;6.50;;;10.30;74.20;;;;;;5051354;28;20444;-47
2023/05/01 06:33:27;;;;;;;9.45;5.93;;;10.40;72.90;;;;;;5036560;28;20035;-47
2023/05/01 06:35:53;;;;;;;15.50;6.72;;;10.40;72.80;;;;;;5042529;28;20403;-47
2023/05/01 06:38:20;;;;;;;10.80;6.75;;;10.50;73.40;;;;;;5044785;28;20030;-46
2023/05/01 06:40:49;;;;;;;10.45;5.72;;;10.50;73.20;;;;;;5057076;28;20047;-46
2023/05/01 06:43:17;;;;;;;12.80;6.63;;;10.60;73.60;;;;;;5036712;28;20354;-46
2023/05/01 06:45:43;;;;;;;10.60;5.55;;;10.70;73.00;;;;;;5063889;28;20033;-46
2023/05/01 06:48:10;;;;;;;8.80;6.22;;;10.70;72.40;;;;;;5035375;28;20098;-46
2023/05/01 06:50:37;;;;;;;12.63;5.95;;;10.80;72.10;;;;;;5054282;28;20029;-46
2023/05/01 06:53:04;;;;;;;10.68;5.63;;;10.90;71.80;;;;;;5055057;28;20081;-46
2023/05/01 06:55:32;;;;;;;11.88;6.85;;;11.00;71.30;;;;;;5044922;28;20032;-46
2023/05/01 06:57:58;;;;;;;12.35;5.78;;;11.10;71.00;;;;;;5061761;28;20052;-45
2023/05/01 07:00:25;;;;;;;9.60;4.93;;;11.10;70.50;;;;;;5042274;28;20029;-45
2023/05/01 07:02:52;;;;;;;11.68;5.07;;;11.20;70.30;;;;;;5054411;28;20036;-46
2023/05/01 07:05:19;;;;;;;10.70;5.00;;;11.20;69.50;;;;;;5035386;28;20366;-46
2023/05/01 07:07:46;;;;;;;12.38;5.15;;;11.40;69.20;;;;;;5036555;28;20127;-47
2023/05/01 07:10:14;;;;;;;10.85;5.18;;;11.40;68.50;;;;;;5020225;28;20048;-46
2023/05/01 07:12:41;;;;;;;11.02;5.25;;;11.50;68.10;;;;;;5035406;28;20060;-46
2023/05/01 07:15:10;;;;;;;10.70;6.03;;;11.80;70.40;;;;;;5054236;28;20493;-46
2023/05/01 07:17:37;;;;;;;11.60;4.80;;;11.80;68.10;;;;;;5036463;28;20096;-46
2023/05/01 07:20:05;;;;;;;9.52;5.22;;;12.00;66.00;;;;;;5053867;28;20271;-46
2023/05/01 07:22:35;;;;;;;9.20;4.90;;;12.30;64.80;;;;;;5051027;28;20036;-47
2023/05/01 07:25:02;;;;;;;8.95;4.50;;;12.50;64.40;;;;;;5062932;28;20207;-48
2023/05/01 07:27:27;;;;;;;8.15;4.53;;;12.70;63.10;;;;;;5054259;28;20028;-46
2023/05/01 07:29:57;;;;;;;7.15;3.53;;;12.80;62.20;;;;;;5041732;28;20358;-46
2023/05/01 07:32:24;;;;;;;8.93;4.32;;;13.00;62.60;;;;;;5052893;28;20024;-47
2023/05/01 07:34:51;;;;;;;7.13;4.13;;;13.40;62.20;;;;;;5027740;28;20696;-46
2023/05/01 07:37:17;;;;;;;9.02;4.43;;;13.80;61.50;;;;;;5054423;28;20072;-47
2023/05/01 07:39:43;;;;;;;9.45;5.10;;;14.10;58.80;;;;;;5045024;28;20060;-49
2023/05/01 07:42:09;;;;;;;10.38;4.70;;;14.40;58.00;;;;;;5045046;28;20029;-49
2023/05/01 07:44:35;;;;;;;7.93;4.15;;;14.70;56.30;;;;;;5054971;28;20028;-46
2023/05/01 07:47:09;;;;;;;7.57;4.68;;;15.00;57.30;;;;;;5045240;28;20029;-48
2023/05/01 07:49:39;;;;;;;7.53;3.85;;;15.40;54.70;;;;;;5047688;28;20033;-47
2023/05/01 07:52:07;;;;;;;7.53;3.55;;;15.30;51.50;;;;;;5043760;28;20164;-46
2023/05/01 07:54:35;;;;;;;8.00;3.50;;;15.50;51.80;;;;;;5053520;28;20025;-47
2023/05/01 07:57:05;;;;;;;7.05;4.40;;;15.70;51.80;;;;;;5052215;28;20032;-48
2023/05/01 07:59:31;;;;;;;9.73;4.60;;;15.80;51.20;;;;;;5048907;28;20072;-46
2023/05/01 08:01:57;;;;;;;6.15;3.72;;;16.20;50.10;;;;;;5053959;28;20118;-47
2023/05/01 08:04:26;;;;;;;5.97;3.75;;;16.40;48.80;;;;;;5041709;28;20098;-45
2023/05/01 08:06:56;;;;;;;7.93;3.55;;;16.70;49.80;;;;;;5042867;28;20076;-48
2023/05/01 08:09:23;;;;;;;7.93;4.32;;;16.70;49.50;;;;;;5052052;28;20397;-46
2023/05/01 08:11:51;;;;;;;5.13;3.53;;;16.90;50.30;;;;;;5051454;28;20052;-51
2023/05/01 08:14:19;;;;;;;7.30;3.38;;;16.90;49.90;;;;;;5045627;28;20032;-49
2023/05/01 08:16:53;;;;;;;7.07;4.00;;;17.40;49.50;;;;;;5055732;28;20025;-46
2023/05/01 08:19:22;;;;;;;9.65;4.68;;;17.60;48.40;;;;;;5066839;28;20447;-47
2023/05/01 08:21:50;;;;;;;7.63;4.55;;;17.80;48.50;;;;;;5058182;28;20039;-47
2023/05/01 08:24:22;;;;;;;9.80;3.65;;;17.60;48.20;;;;;;5039775;28;20031;-49
2023/05/01 08:26:50;;;;;;;10.30;5.28;;;17.50;49.50;;;;;;5048346;28;20025;-48
2023/05/01 08:29:17;;;;;;;9.82;4.63;;;17.90;51.20;;;;;;5032585;28;20103;-46
2023/05/01 08:31:43;;;;;;;6.05;4.28;;;18.10;49.80;;;;;;5058680;28;20036;-46
2023/05/01 08:34:10;;;;;;;6.70;4.22;;;18.40;48.50;;;;;;5052928;28;20095;-51
2023/05/01 08:36:37;;;;;;;8.10;4.43;;;18.50;48.80;;;;;;5035027;28;20039;-47
2023/05/01 08:39:06;;;;;;;6.47;4.43;;;18.70;50.50;;;;;;5048773;28;20024;-46
2023/05/01 08:41:33;;;;;;;12.73;5.05;;;18.80;48.90;;;;;;5049925;28;20037;-46
2023/05/01 08:44:04;;;;;;;8.68;4.18;;;18.70;48.60;;;;;;5025337;28;20787;-48
2023/05/01 08:46:52;;;;;;;6.10;4.22;;;18.90;50.00;;;;;;5069111;28;20043;-46
2023/05/01 08:49:21;;;;;;;7.10;4.88;;;18.90;49.30;;;;;;5064904;28;20080;-47
2023/05/01 08:51:51;;;;;;;8.93;4.60;;;18.90;47.70;;;;;;5052664;28;20076;-52
2023/05/01 08:54:20;;;;;;;16.52;5.28;;;18.90;49.80;;;;;;5040745;28;20036;-46
2023/05/01 08:56:50;;;;;;;7.70;4.13;;;19.00;49.50;;;;;;5068633;28;20116;-52
2023/05/01 08:59:18;;;;;;;7.05;4.65;;;19.60;50.20;;;;;;5049765;28;20114;-50
2023/05/01 09:01:46;;;;;;;7.97;5.63;;;19.40;48.00;;;;;;5033378;28;20652;-48
2023/05/01 09:04:17;;;;;;;8.57;4.60;;;19.20;49.40;;;;;;5034179;28;20037;-46
2023/05/01 09:06:43;;;;;;;5.68;4.38;;;19.10;48.80;;;;;;5051175;28;20052;-47
2023/05/01 09:09:13;;;;;;;6.07;3.65;;;19.50;48.40;;;;;;5045706;28;20037;-46
2023/05/01 09:11:44;;;;;;;7.30;4.30;;;19.90;50.10;;;;;;5058320;28;20028;-46
2023/05/01 09:14:11;;;;;;;8.05;4.93;;;19.90;48.70;;;;;;5033223;28;20113;-47
2023/05/01 09:16:37;;;;;;;7.93;4.72;;;19.90;48.20;;;;;;5043777;28;20111;-48
2023/05/01 09:19:04;;;;;;;5.63;4.03;;;19.70;46.80;;;;;;5038593;28;20524;-46
2023/05/01 09:21:30;;;;;;;7.05;4.70;;;19.50;48.80;;;;;;5034408;28;20037;-47
2023/05/01 09:23:58;;;;;;;6.97;4.75;;;19.60;51.20;;;;;;5065165;28;20338;-48
2023/05/01 09:26:26;;;;;;;7.80;4.30;;;19.80;48.40;;;;;;5055032;28;20076;-49
2023/05/01 09:28:56;;;;;;;7.85;5.35;;;19.90;49.30;;;;;;5046804;28;20024;-47
2023/05/01 09:31:31;;;;;;;8.52;4.55;;;20.10;45.20;;;;;;5056757;28;20369;-47
2023/05/01 09:34:21;;;;;;;7.53;4.55;;;20.00;46.60;;;;;;5040717;28;20025;-50
2023/05/01 09:36:52;;;;;;;6.93;5.10;;;20.20;46.80;;;;;;5035612;28;20037;-49
2023/05/01 09:39:22;;;;;;;8.25;4.03;;;20.30;48.50;;;;;;5031717;28;20034;-47
2023/05/01 09:41:51;;;;;;;6.43;4.18;;;20.50;47.30;;;;;;5027079;28;20037;-47
2023/05/01 09:44:18;;;;;;;8.75;4.45;;;20.50;46.50;;;;;;5032322;28;20041;-48
2023/05/01 09:46:46;;;;;;;8.43;3.75;;;20.60;46.70;;;;;;5052572;28;20532;-49
2023/05/01 09:49:14;;;;;;;9.80;4.25;;;20.40;46.40;;;;;;5063448;28;20040;-46
2023/05/01 09:51:42;;;;;;;7.57;4.65;;;20.10;46.30;;;;;;5060184;28;20052;-47
2023/05/01 09:54:18;;;;;;;6.43;3.72;;;19.90;46.80;;;;;;5070402;28;20480;-49
2023/05/01 09:56:49;;;;;;;8.05;4.32;;;19.90;46.00;;;;;;5021502;28;20326;-47
2023/05/01 09:59:34;;;;;;;10.20;4.85;;;19.90;45.30;;;;;;5027397;28;20029;-47
2023/05/01 10:02:02;;;;;;;9.27;4.95;;;19.60;46.40;;;;;;5049800;28;20363;-50
2023/05/01 10:04:46;;;;;;;8.70;4.25;;;20.00;47.20;;;;;;5047493;28;20021;-53
2023/05/01 10:07:13;;;;;;;5.70;3.55;;;20.10;48.60;;;;;;5034286;28;20096;-51
2023/05/01 10:09:41;;;;;;;7.05;3.30;;;19.90;45.60;;;;;;5050702;28;20571;-47
2023/05/01 10:12:08;;;;;;;6.10;3.58;;;19.90;43.90;;;;;;5052330;28;20055;-48
2023/05/01 10:14:52;;;;;;;6.70;3.53;;;20.20;46.30;;;;;;5055123;28;20060;-50
2023/05/01 10:17:19;;;;;;;8.52;4.18;;;20.60;44.60;;;;;;5019895;28;20030;-49
2023/05/01 10:19:46;;;;;;;6.07;3.85;;;20.60;45.70;;;;;;5041227;28;20016;-47
2023/05/01 10:22:18;;;;;;;7.47;3.40;;;20.80;44.90;;;;;;5045553;28;20033;-49
2023/05/01 10:24:45;;;;;;;4.85;2.80;;;20.90;45.30;;;;;;5075304;28;20739;-50
2023/05/01 10:27:12;;;;;;;5.82;3.65;;;21.20;47.50;;;;;;5066909;28;20442;-50
2023/05/01 10:29:41;;;;;;;7.10;4.07;;;21.00;44.20;;;;;;5049228;28;20351;-49
2023/05/01 10:32:11;;;;;;;;;;;20.70;43.30;;;;;;5055037;28;20154;-49
2023/05/01 10:34:50;;;;;;;6.50;3.00;;;20.90;45.10;;;;;;5039555;28;19913;-49
2023/05/01 10:37:44;;;;;;;;;;;21.10;47.10;;;;;;5055505;28;20549;-47
2023/05/01 10:40:47;;;;;;;4.95;2.60;;;21.40;43.00;;;;;;5036689;28;19909;-48
2023/05/01 10:43:30;;;;;;;7.70;3.20;;;21.60;43.40;;;;;;5036306;28;20090;-50
2023/05/01 10:46:20;;;;;;;6.45;2.78;;;21.70;41.10;;;;;;5018984;28;20040;-47
2023/05/01 10:48:52;;;;;;;7.28;3.20;;;21.40;42.20;;;;;;5050050;28;20040;-49
2023/05/01 10:52:03;;;;;;;7.93;3.28;;;21.00;41.90;;;;;;5041142;28;20027;-47
2023/05/01 10:54:31;;;;;;;6.25;3.35;;;20.60;44.40;;;;;;5039101;28;20028;-50
2023/05/01 10:57:06;;;;;;;6.63;3.27;;;20.70;44.70;;;;;;5049111;28;20033;-49
2023/05/01 11:00:00;;;;;;;8.02;3.42;;;20.60;44.10;;;;;;5022820;28;20489;-48
2023/05/01 11:02:26;;;;;;;6.18;3.70;;;20.90;44.10;;;;;;5052659;28;20040;-49
2023/05/01 11:04:54;;;;;;;8.60;4.40;;;20.60;44.80;;;;;;5052516;28;20028;-51
2023/05/01 11:07:21;;;;;;;6.38;4.05;;;20.50;46.00;;;;;;5050299;28;20052;-47
2023/05/01 11:10:23;;;;;;;8.32;3.90;;;20.60;45.80;;;;;;5048567;28;20035;-48
2023/05/01 11:12:51;;;;;;;5.57;3.55;;;20.70;44.50;;;;;;5028490;28;20502;-49
2023/05/01 11:15:32;;;;;;;8.10;4.38;;;20.60;46.40;;;;;;5021756;28;20022;-48
2023/05/01 11:18:04;;;;;;;7.97;4.80;;;20.50;45.40;;;;;;5046199;28;20029;-49
2023/05/01 11:20:50;;;;;;;6.60;4.85;;;20.30;46.80;;;;;;5041726;28;20047;-47
2023/05/01 11:23:19;;;;;;;7.78;4.47;;;19.70;46.60;;;;;;5048757;28;20099;-47
2023/05/01 11:25:46;;;;;;;11.75;5.60;;;19.40;48.10;;;;;;5012721;28;20041;-47
2023/05/01 11:28:24;;;;;;;9.35;4.70;;;19.30;48.90;;;;;;5016617;28;20429;-48
2023/05/01 11:30:54;;;;;;;8.38;5.18;;;19.00;48.80;;;;;;5045664;28;20021;-49
2023/05/01 11:33:24;;;;;;;8.43;5.70;;;19.00;49.70;;;;;;5050760;28;20116;-48
2023/05/01 11:35:59;;;;;;;7.22;4.93;;;19.10;47.80;;;;;;5034584;28;20283;-49
2023/05/01 11:38:26;;;;;;;12.27;6.30;;;19.00;48.10;;;;;;5036680;28;20071;-47
2023/05/01 11:41:03;;;;;;;10.75;5.30;;;18.90;48.60;;;;;;5020943;28;20108;-47
2023/05/01 11:43:30;;;;;;;9.13;4.47;;;18.90;50.00;;;;;;5023394;28;20040;-47
2023/05/01 11:46:01;;;;;;;6.65;4.25;;;18.90;48.50;;;;;;5029842;28;20509;-48
2023/05/01 11:48:28;;;;;;;6.43;4.55;;;19.00;50.60;;;;;;5036092;28;20033;-47
2023/05/01 11:50:56;;;;;;;10.60;4.10;;;18.90;49.20;;;;;;5033280;28;20041;-47
2023/05/01 11:53:21;;;;;;;7.68;4.72;;;19.00;49.70;;;;;;5048340;28;20032;-48
2023/05/01 11:55:48;;;;;;;12.38;5.95;;;18.80;51.20;;;;;;5053563;28;20029;-49
2023/05/01 11:58:14;;;;;;;7.40;4.97;;;18.50;49.00;;;;;;5035906;28;20025;-49
2023/05/01 12:00:44;;;;;;;7.03;5.60;;;18.40;50.50;;;;;;5050714;28;20032;-47
2023/05/01 12:03:13;;;;;;;9.35;5.57;;;18.20;50.40;;;;;;5027528;28;20807;-47
2023/05/01 12:05:51;;;;;;;8.80;5.07;;;18.30;50.60;;;;;;5033614;28;20354;-47
2023/05/01 12:08:36;;;;;;;10.55;5.72;;;18.40;51.90;;;;;;5015555;28;20041;-47
2023/05/01 12:11:14;;;;;;;10.35;5.10;;;18.60;49.40;;;;;;5043813;28;20076;-47
2023/05/01 12:13:40;;;;;;;11.43;5.75;;;18.60;50.80;;;;;;5032123;28;20095;-47
2023/05/01 12:16:10;;;;;;;7.28;5.10;;;18.70;51.50;;;;;;5016216;28;20025;-48
2023/05/01 12:18:39;;;;;;;7.63;5.55;;;18.60;49.00;;;;;;5016065;28;20521;-47
2023/05/01 12:21:16;;;;;;;9.73;4.97;;;18.40;49.50;;;;;;5035599;28;20101;-48
2023/05/01 12:23:45;;;;;;;8.63;5.60;;;18.40;50.20;;;;;;5035759;28;20043;-50
2023/05/01 12:26:29;;;;;;;10.73;3.70;;;18.30;47.50;;;;;;5063811;28;20036;-47
2023/05/01 12:28:55;;;;;;;6.57;3.40;;;18.30;46.50;;;;;;5060972;28;20029;-49
2023/05/01 12:31:26;;;;;;;10.13;3.90;;;18.20;47.20;;;;;;5040711;28;20055;-48
2023/05/01 12:34:01;;;;;;;10.57;3.45;;;18.20;45.20;;;;;;5045716;28;20045;-48
2023/05/01 12:36:47;;;;;;;10.48;3.85;;;18.20;44.70;;;;;;5048096;28;20021;-51
2023/05/01 12:39:13;;;;;;;7.38;3.30;;;18.10;47.40;;;;;;5051968;28;20033;-49
2023/05/01 12:41:53;;;;;;;7.97;3.80;;;18.00;46.40;;;;;;5026473;28;20112;-50
2023/05/01 12:44:29;;;;;;;9.23;4.43;;;17.80;47.40;;;;;;5043261;28;20354;-52
2023/05/01 12:47:03;;;;;;;8.80;4.47;;;17.80;49.20;;;;;;5056522;28;20050;-48
2023/05/01 12:49:35;;;;;;;9.73;4.45;;;17.80;49.00;;;;;;5045584;28;20359;-48
2023/05/01 12:52:05;;;;;;;9.15;4.63;;;17.70;48.30;;;;;;5032612;28;20040;-46
2023/05/01 12:54:37;;;;;;;7.65;4.15;;;17.80;51.30;;;;;;5023223;28;20025;-49
2023/05/01 12:57:15;;;;;;;7.10;4.00;;;17.90;49.00;;;;;;5046257;28;20043;-47
2023/05/01 12:59:44;;;;;;;8.15;4.20;;;17.90;52.30;;;;;;5046996;28;20040;-46